Time;durP1;ratioP1;P1;durP2;ratioP2;P2;SDS_P1;SDS_P2;PMS_P1;PMS_P2;Temp;Humidity;BMP_temperature;BMP_pressure;BME280_temperature;BME280_humidity;BME280_pressure;Samples;Min_cycle;Max_cycle;Signal;HPM_P1;HPM_P2
2021/06/24 00:01:38;;;;;;;8.55;3.60;;;;;;;20.35;67.57;100995.52;5139367;56;1140682;-82
2021/06/24 00:06:45;;;;;;;12.53;4.28;;;;;;;20.22;67.68;100995.20;5139674;55;1138757;-81
2021/06/24 00:11:51;;;;;;;13.08;4.47;;;;;;;20.11;67.72;100999.08;5139738;56;1140776;-82
2021/06/24 00:16:57;;;;;;;8.50;3.60;;;;;;;20.10;67.81;100997.41;5131557;56;1140751;-82
2021/06/24 00:22:02;;;;;;;10.65;4.97;;;;;;;20.02;67.73;100992.02;5055036;57;1138828;-83
2021/06/24 00:27:08;;;;;;;14.10;5.67;;;;;;;19.97;68.02;100983.66;5054581;57;1140656;-80
2021/06/24 00:32:15;;;;;;;10.90;4.00;;;;;;;19.94;68.12;100978.61;5054873;57;1140697;-82
2021/06/24 00:37:20;;;;;;;10.18;3.50;;;;;;;19.92;68.23;100982.80;5054786;57;1140787;-81
2021/06/24 00:42:29;;;;;;;11.12;3.95;;;;;;;19.86;67.84;100965.20;5054710;57;1140832;-80
2021/06/24 00:47:35;;;;;;;10.43;4.50;;;;;;;19.78;67.88;100966.53;5054917;56;1140843;-82
2021/06/24 00:52:41;;;;;;;10.90;4.10;;;;;;;19.70;68.39;100956.66;5059697;55;1140734;-82
2021/06/24 00:57:48;;;;;;;8.10;3.77;;;;;;;19.70;68.39;100956.66;5083177;56;1140916;-79
2021/06/24 01:02:54;;;;;;;10.13;3.70;;;;;;;19.76;68.46;100949.25;5083504;56;1138653;-86
2021/06/24 01:08:00;;;;;;;5.97;3.20;;;;;;;19.73;67.94;100946.05;5082899;56;1141082;-80
2021/06/24 01:13:08;;;;;;;13.68;3.75;;;;;;;19.63;67.71;100947.58;5083248;56;1138638;-81
2021/06/24 01:18:16;;;;;;;8.15;3.30;;;;;;;19.52;67.46;100964.02;5111827;56;1140698;-81
2021/06/24 01:23:22;;;;;;;15.10;3.37;;;;;;;19.53;67.84;100972.40;5164082;56;1138587;-81
2021/06/24 01:28:29;;;;;;;7.03;2.83;;;;;;;19.43;67.49;100984.58;5163064;56;1141196;-82
2021/06/24 01:33:35;;;;;;;10.08;3.55;;;;;;;19.33;67.54;100991.44;5164172;56;1138656;-84
2021/06/24 01:38:44;;;;;;;8.30;3.90;;;;;;;19.27;67.74;101005.49;5163994;56;1140705;-80
2021/06/24 01:44:01;;;;;;;8.00;2.95;;;;;;;19.25;68.04;101009.34;5163696;56;1138739;-84
2021/06/24 01:49:07;;;;;;;10.53;3.40;;;;;;;19.19;67.98;101017.55;5163925;56;1138583;-83
2021/06/24 01:54:13;;;;;;;13.90;3.67;;;;;;;19.12;67.96;101035.27;5159363;56;1140703;-83
2021/06/24 01:59:19;;;;;;;10.70;3.52;;;;;;;19.14;68.28;101029.25;5134110;56;1140761;-84
2021/06/24 02:04:39;;;;;;;12.75;3.40;;;;;;;19.12;68.08;101012.98;5134064;56;1140681;-80
2021/06/24 02:09:45;;;;;;;8.60;3.50;;;;;;;19.06;68.56;101014.49;5134305;56;1140948;-81
2021/06/24 02:14:52;;;;;;;6.83;3.40;;;;;;;19.13;68.74;101016.84;5134599;56;1138678;-85
2021/06/24 02:19:59;;;;;;;10.35;4.17;;;;;;;19.13;68.65;101000.76;5141192;56;1138857;-80
2021/06/24 02:25:13;;;;;;;11.20;3.70;;;;;;;19.06;68.40;101005.61;5130767;56;1141197;-82
2021/06/24 02:30:26;;;;;;;7.05;3.50;;;;;;;19.06;68.62;100996.22;5136900;56;1140841;-84
2021/06/24 02:35:36;;;;;;;11.75;3.72;;;;;;;19.08;68.84;101004.95;5107880;56;1138501;-86
2021/06/24 02:40:43;;;;;;;7.08;4.12;;;;;;;19.06;68.62;101016.33;5138441;56;1140638;-83
2021/06/24 02:45:49;;;;;;;11.80;4.17;;;;;;;18.94;68.73;101023.30;5139216;56;1138612;-85
2021/06/24 02:50:59;;;;;;;7.75;3.42;;;;;;;18.94;69.37;101028.66;5134607;55;1140648;-83
2021/06/24 02:56:05;;;;;;;8.48;3.75;;;;;;;19.00;69.55;101033.89;5139075;56;1138599;-82
2021/06/24 03:01:12;;;;;;;11.68;3.98;;;;;;;19.06;69.67;101031.92;5137795;56;1138628;-78
2021/06/24 03:06:24;;;;;;;16.70;4.75;;;;;;;19.20;69.99;101040.69;5137330;56;1140591;-82
2021/06/24 03:11:30;;;;;;;12.28;4.90;;;;;;;19.30;69.85;101056.13;5138675;56;1140647;-78
2021/06/24 03:16:38;;;;;;;12.20;4.60;;;;;;;19.34;69.81;101056.66;5135805;56;1140611;-83
2021/06/24 03:21:45;;;;;;;12.43;4.05;;;;;;;19.33;69.69;101057.66;5074151;56;1140765;-77
2021/06/24 03:26:52;;;;;;;22.57;4.77;;;;;;;19.30;69.73;101033.84;5054739;56;1140757;-81
2021/06/24 03:31:58;;;;;;;7.67;3.57;;;;;;;19.23;69.78;101009.53;5055331;56;1140815;-85
2021/06/24 03:37:06;;;;;;;9.23;4.17;;;;;;;19.11;70.20;100985.33;5055336;56;1138764;-84
2021/06/24 03:42:14;;;;;;;20.52;4.17;;;;;;;18.97;70.83;100939.88;5129681;56;1138702;-83
2021/06/24 03:47:20;;;;;;;26.73;5.72;;;;;;;18.85;71.37;100887.59;5140093;55;1140658;-85
2021/06/24 03:52:26;;;;;;;20.00;4.65;;;;;;;18.65;71.74;100863.91;5139968;56;1140784;-87
2021/06/24 03:57:33;;;;;;;13.35;4.67;;;;;;;18.49;72.71;100839.20;5143483;56;1140747;-87
2021/06/24 04:02:40;;;;;;;16.15;3.72;;;;;;;18.37;73.52;100813.73;5157098;55;1140868;-85
2021/06/24 04:07:48;;;;;;;14.58;4.30;;;;;;;18.27;74.44;100807.17;5167798;55;1140699;-83
2021/06/24 04:12:54;;;;;;;14.47;5.40;;;;;;;18.24;75.11;100788.75;5168951;55;1140683;-80
2021/06/24 04:18:04;;;;;;;16.35;4.75;;;;;;;18.21;75.32;100795.77;5167932;56;1140714;-78
2021/06/24 04:23:11;;;;;;;13.83;5.85;;;;;;;18.28;75.92;100808.86;5168706;56;1140868;-81
2021/06/24 04:28:25;;;;;;;22.85;5.60;;;;;;;18.33;76.18;100790.48;5167950;56;1140617;-79
2021/06/24 04:33:39;;;;;;;9.65;3.75;;;;;;;18.34;76.63;100778.73;5168755;56;1140741;-84
2021/06/24 04:39:02;;;;;;;12.07;5.57;;;;;;;18.32;77.99;100757.16;5168830;56;1138774;-78
2021/06/24 04:44:08;;;;;;;10.18;4.90;;;;;;;18.13;77.98;100722.97;5168716;56;1140669;-81
2021/06/24 04:49:17;;;;;;;15.75;6.17;;;;;;;18.09;78.65;100705.55;5168889;56;1140636;-76
2021/06/24 04:54:24;;;;;;;7.87;4.70;;;;;;;18.15;79.01;100718.30;5161284;56;1141129;-83
2021/06/24 04:59:30;;;;;;;16.67;5.80;;;;;;;18.19;79.52;100706.73;5168683;56;1138684;-85
2021/06/24 05:04:55;;;;;;;15.43;5.50;;;;;;;18.27;79.43;100716.14;5168925;55;1140860;-82
2021/06/24 05:10:00;;;;;;;13.83;5.53;;;;;;;18.45;79.85;100720.88;5168920;56;1140725;-83
2021/06/24 05:15:07;;;;;;;17.20;7.10;;;;;;;18.54;80.11;100698.44;5168722;56;1140976;-81
2021/06/24 05:20:14;;;;;;;19.87;6.75;;;;;;;18.66;80.53;100704.83;5104565;56;1140864;-81
2021/06/24 05:25:19;;;;;;;15.23;7.05;;;;;;;18.70;80.21;100717.73;5083105;56;1140687;-79
2021/06/24 05:30:25;;;;;;;13.13;6.40;;;;;;;18.85;80.66;100732.65;5082900;56;1140750;-79
2021/06/24 05:35:31;;;;;;;18.02;6.37;;;;;;;19.01;80.66;100749.23;5083114;57;1140866;-81
2021/06/24 05:40:37;;;;;;;15.40;7.70;;;;;;;19.13;80.56;100762.13;5083076;56;1140906;-84
2021/06/24 05:45:43;;;;;;;12.25;7.62;;;;;;;19.27;80.88;100766.80;5083266;56;1140734;-80
2021/06/24 05:50:49;;;;;;;15.13;7.05;;;;;;;19.36;80.71;100756.92;5071163;56;1140881;-79
2021/06/24 05:55:55;;;;;;;17.48;7.80;;;;;;;19.39;80.52;100757.93;5079260;56;1140889;-83
2021/06/24 06:01:01;;;;;;;21.25;8.18;;;;;;;19.44;80.58;100769.47;5078045;56;1140922;-80
2021/06/24 06:06:07;;;;;;;20.50;7.85;;;;;;;19.52;80.86;100769.00;5054740;57;1140727;-82
2021/06/24 06:11:14;;;;;;;13.70;7.65;;;;;;;19.65;80.83;100791.27;5024189;57;1140703;-79
2021/06/24 06:16:19;;;;;;;8.68;6.20;;;;;;;19.70;80.57;100802.84;5054638;57;1140642;-83
2021/06/24 06:21:29;;;;;;;16.93;8.45;;;;;;;19.58;80.38;100823.80;5138388;56;1138616;-81
2021/06/24 06:26:34;;;;;;;18.32;8.00;;;;;;;19.47;80.47;100819.59;5094105;56;1140784;-86
2021/06/24 06:31:40;;;;;;;13.22;7.30;;;;;;;19.44;80.63;100821.27;5097717;56;1140684;-82
2021/06/24 06:36:46;;;;;;;18.42;8.55;;;;;;;19.44;80.69;100819.09;5093978;56;1140753;-78
2021/06/24 06:41:52;;;;;;;10.98;7.28;;;;;;;19.42;81.03;100821.10;5139119;56;1140890;-86
2021/06/24 06:46:57;;;;;;;14.90;7.12;;;;;;;19.42;81.31;100815.73;5139093;56;1140977;-82
2021/06/24 06:52:03;;;;;;;14.18;8.05;;;;;;;19.42;81.43;100825.97;5139058;56;1140841;-82
2021/06/24 06:57:09;;;;;;;16.90;8.70;;;;;;;19.43;81.50;100828.98;5139039;56;1140693;-84
2021/06/24 07:02:15;;;;;;;16.27;9.28;;;;;;;19.48;81.54;100826.64;5139195;56;1140770;-77
2021/06/24 07:07:21;;;;;;;18.80;9.85;;;;;;;19.59;81.78;100822.80;5139620;56;1140690;-81
2021/06/24 07:12:26;;;;;;;16.00;10.03;;;;;;;19.65;81.84;100827.50;5139591;56;1140713;-81
2021/06/24 07:17:32;;;;;;;19.92;10.48;;;;;;;19.73;82.03;100832.00;5121748;56;1142839;-85
2021/06/24 07:22:38;;;;;;;21.48;10.88;;;;;;;19.77;81.89;100834.17;5054572;57;1142903;-80
2021/06/24 07:27:45;;;;;;;16.73;9.73;;;;;;;19.95;82.26;100844.71;5054879;57;1142990;-81
2021/06/24 07:32:51;;;;;;;19.00;11.18;;;;;;;20.13;81.87;100845.34;5056276;57;1141022;-82
2021/06/24 07:37:57;;;;;;;20.60;11.73;;;;;;;20.23;81.58;100851.84;4971178;57;1142817;-79
2021/06/24 07:43:03;;;;;;;27.02;12.13;;;;;;;20.32;81.52;100849.44;5013937;57;1143009;-79
2021/06/24 07:48:09;;;;;;;26.37;11.12;;;;;;;20.45;81.80;100830.13;5054926;57;1143165;-80
2021/06/24 07:53:14;;;;;;;18.87;11.33;;;;;;;20.59;81.90;100827.53;5054689;57;1142785;-84
2021/06/24 07:58:20;;;;;;;19.73;11.18;;;;;;;20.75;81.45;100840.55;5054855;57;1142758;-84
2021/06/24 08:03:25;;;;;;;16.15;11.93;;;;;;;20.81;81.21;100830.41;5054707;57;1143077;-84
2021/06/24 08:08:31;;;;;;;28.02;13.40;;;;;;;20.97;81.59;100822.23;5054799;57;1143039;-82
2021/06/24 08:13:37;;;;;;;27.48;11.88;;;;;;;21.10;81.38;100817.09;5054785;57;1143245;-80
2021/06/24 08:18:43;;;;;;;18.70;12.10;;;;;;;21.23;80.64;100815.20;5058452;55;1143080;-80
2021/06/24 08:23:49;;;;;;;18.15;10.95;;;;;;;21.28;80.66;100809.59;5063674;56;1142829;-82
2021/06/24 08:28:55;;;;;;;19.77;13.90;;;;;;;21.38;80.72;100813.39;5064197;56;1142745;-80
2021/06/24 08:34:02;;;;;;;16.42;11.85;;;;;;;21.54;80.93;100805.12;5043828;55;1143013;-83
2021/06/24 08:39:08;;;;;;;18.27;10.15;;;;;;;21.63;79.73;100792.45;5054471;56;1142671;-80
2021/06/24 08:44:13;;;;;;;19.02;12.43;;;;;;;21.72;80.14;100800.23;5054137;56;1142723;-79
2021/06/24 08:49:28;;;;;;;20.43;12.82;;;;;;;21.75;79.66;100798.53;5054225;56;1142848;-85
2021/06/24 08:54:33;;;;;;;24.12;14.87;;;;;;;21.94;79.64;100799.01;5054520;56;1142815;-79
2021/06/24 08:59:39;;;;;;;26.05;11.85;;;;;;;22.20;80.13;100791.81;5054662;56;1142981;-78
2021/06/24 09:04:48;;;;;;;20.64;12.14;;;;;;;22.49;80.03;100791.75;5055478;55;1142924;-81
2021/06/24 09:09:57;;;;;;;15.23;10.85;;;;;;;22.54;79.08;100793.89;5102673;56;1143312;-79
2021/06/24 09:15:04;;;;;;;13.15;10.15;;;;;;;22.55;77.79;100796.91;5099531;56;1142717;-80
2021/06/24 09:20:29;;;;;;;14.03;8.80;;;;;;;22.45;77.83;100792.67;5050668;56;1142775;-79
2021/06/24 09:25:37;;;;;;;15.70;8.18;;;;;;;22.34;77.49;100789.09;5050174;56;1140724;-78
2021/06/24 09:30:45;;;;;;;13.85;9.25;;;;;;;22.21;77.69;100788.09;5050414;56;1140712;-78
2021/06/24 09:35:59;;;;;;;18.42;10.78;;;;;;;22.02;77.62;100786.30;5050330;56;1140785;-80
2021/06/24 09:41:04;;;;;;;25.07;11.37;;;;;;;22.02;77.62;100786.30;5050496;56;1142852;-80
2021/06/24 09:46:16;;;;;;;18.60;10.00;;;;;;;22.06;78.06;100783.56;5050570;56;1142983;-82
2021/06/24 09:51:30;;;;;;;15.53;10.15;;;;;;;22.13;78.26;100779.63;5050055;56;1143005;-78
2021/06/24 09:56:52;;;;;;;27.20;11.63;;;;;;;22.05;77.95;100780.55;5047916;56;1142947;-79
2021/06/24 10:01:57;;;;;;;16.40;11.50;;;;;;;22.00;78.04;100782.95;5050272;56;1142703;-80
2021/06/24 10:07:08;;;;;;;25.23;10.80;;;;;;;22.25;78.76;100778.62;5050075;56;1142841;-81
2021/06/24 10:12:20;;;;;;;15.55;12.07;;;;;;;22.50;78.95;100777.25;5053808;56;1142864;-80
2021/06/24 10:17:26;;;;;;;14.40;10.35;;;;;;;22.62;77.35;100785.67;5139073;56;1142749;-82
2021/06/24 10:22:34;;;;;;;17.92;11.53;;;;;;;22.77;77.36;100743.34;5155608;56;1142750;-77
2021/06/24 10:27:43;;;;;;;17.35;11.15;;;;;;;22.86;76.67;100758.38;5156091;56;1142935;-82
2021/06/24 10:33:04;;;;;;;21.75;11.93;;;;;;;23.03;77.73;100765.70;5155574;56;1143042;-79
2021/06/24 10:38:13;;;;;;;22.75;10.23;;;;;;;23.29;76.83;100768.61;5156713;56;1143022;-80
2021/06/24 10:43:18;;;;;;;19.65;9.70;;;;;;;23.40;76.21;100778.86;5156480;56;1142768;-81
2021/06/24 10:48:30;;;;;;;11.38;8.60;;;;;;;23.28;74.98;100768.28;5156092;56;1140864;-77
2021/06/24 10:53:51;;;;;;;15.32;9.75;;;;;;;23.23;74.64;100770.73;5156593;56;1140715;-79
2021/06/24 10:58:59;;;;;;;15.12;9.82;;;;;;;23.25;75.17;100774.06;5156554;56;1140708;-82
2021/06/24 11:04:05;;;;;;;21.25;10.95;;;;;;;23.32;74.86;100774.13;5156838;56;1140881;-81
2021/06/24 11:09:18;;;;;;;23.07;10.32;;;;;;;23.29;74.00;100774.52;5156547;56;1142919;-80
2021/06/24 11:14:55;;;;;;;18.30;11.33;;;;;;;23.17;74.25;100771.52;5156320;56;1142927;-82
2021/06/24 11:20:19;;;;;;;13.48;9.73;;;;;;;23.14;74.29;100769.21;5149713;56;1142777;-79
2021/06/24 11:25:24;;;;;;;14.93;9.33;;;;;;;23.05;74.41;100769.88;5117947;56;1140893;-79
2021/06/24 11:31:02;;;;;;;18.42;10.20;;;;;;;22.90;74.45;100770.45;5087982;56;1140882;-79
2021/06/24 11:36:17;;;;;;;16.43;9.90;;;;;;;22.80;74.76;100771.27;5069898;56;1142750;-79
2021/06/24 11:41:25;;;;;;;21.55;10.30;;;;;;;22.72;74.88;100761.44;5070312;57;1140670;-79
2021/06/24 11:46:34;;;;;;;21.80;9.90;;;;;;;22.69;74.83;100763.16;5071741;57;1142914;-78
2021/06/24 12:03:19;;;;;;;20.68;13.22;;;;;;;22.86;75.17;100751.64;5071564;57;1140669;-80
2021/06/24 12:07:40;;;;;;;20.68;11.40;;;;;;;22.96;75.10;100752.65;4970212;56;1142799;-81
2021/06/24 12:12:46;;;;;;;22.27;13.83;;;;;;;23.01;75.04;100751.56;5009770;56;1142778;-78
2021/06/24 12:17:52;;;;;;;24.30;12.82;;;;;;;23.05;74.54;100748.80;5061746;56;1142796;-79
2021/06/24 12:23:00;;;;;;;15.70;10.48;;;;;;;23.12;75.05;100753.21;5066712;56;1143049;-77
2021/06/24 12:28:09;;;;;;;17.97;10.93;;;;;;;23.15;74.53;100740.69;5083348;56;1143069;-78
2021/06/24 12:33:16;;;;;;;27.82;11.68;;;;;;;22.96;73.90;100741.34;5083366;56;1142774;-80
2021/06/24 12:38:28;;;;;;;18.67;11.40;;;;;;;22.89;74.91;100742.33;5065844;56;1142849;-79
2021/06/24 12:43:37;;;;;;;30.90;12.10;;;;;;;22.81;74.58;100747.33;5084137;56;1142923;-82
2021/06/24 12:48:46;;;;;;;15.20;7.55;;;;;;;22.81;75.31;100740.58;5083001;56;1142922;-78
2021/06/24 12:53:54;;;;;;;21.87;11.20;;;;;;;23.07;75.77;100738.63;5083670;56;1140699;-85
2021/06/24 12:59:20;;;;;;;22.60;12.05;;;;;;;23.25;75.78;100748.94;5083503;56;1142879;-79
2021/06/24 13:04:28;;;;;;;22.80;12.60;;;;;;;23.40;75.28;100751.03;5083112;56;1142830;-78
2021/06/24 13:09:35;;;;;;;21.10;10.82;;;;;;;23.27;73.71;100756.33;5080824;56;1142915;-76
2021/06/24 13:14:44;;;;;;;17.60;10.38;;;;;;;23.17;74.22;100758.55;5113236;56;1143182;-78
2021/06/24 13:19:56;;;;;;;27.75;12.45;;;;;;;23.03;74.13;100749.00;5136980;56;1143068;-78
2021/06/24 13:25:04;;;;;;;22.90;12.78;;;;;;;23.05;74.63;100747.45;5123746;55;1142966;-79
2021/06/24 13:30:16;;;;;;;25.37;14.17;;;;;;;23.06;74.59;100747.27;5080446;56;1142947;-80
2021/06/24 13:35:26;;;;;;;;;;;;;;;23.12;74.72;100741.07;5150148;56;1142944;-78
2021/06/24 13:40:49;;;;;;;22.02;13.13;;;;;;;23.11;73.91;100744.80;5162184;56;975917;-78
2021/06/24 13:45:58;;;;;;;31.77;14.55;;;;;;;22.99;73.87;100744.17;5148128;55;1140732;-80
2021/06/24 13:51:04;;;;;;;28.40;14.73;;;;;;;23.02;74.17;100749.19;5106413;55;1143056;-78
2021/06/24 13:56:10;;;;;;;48.95;15.18;;;;;;;23.02;73.66;100750.53;5183012;55;1143047;-79
2021/06/24 14:01:16;;;;;;;25.03;12.90;;;;;;;22.91;73.43;100749.72;5169171;55;1142813;-78
2021/06/24 14:06:24;;;;;;;23.00;12.58;;;;;;;22.76;73.60;100748.41;5181600;55;1142946;-81
2021/06/24 14:11:30;;;;;;;28.92;14.73;;;;;;;22.67;74.00;100745.50;5222679;55;1142775;-79
2021/06/24 14:16:38;;;;;;;20.70;12.35;;;;;;;22.69;74.13;100742.94;5170529;55;1142769;-82
2021/06/24 14:21:43;;;;;;;21.97;12.90;;;;;;;22.72;74.08;100744.42;5211765;56;1142762;-78
2021/06/24 14:26:49;;;;;;;24.80;13.58;;;;;;;22.67;73.90;100739.59;5201349;56;1142790;-81
2021/06/24 14:31:56;;;;;;;19.57;12.82;;;;;;;22.71;74.09;100744.93;5149674;56;1142697;-81
2021/06/24 14:37:02;;;;;;;26.80;11.90;;;;;;;22.76;73.97;100746.55;5196713;55;1142823;-77
2021/06/24 14:42:08;;;;;;;20.80;12.05;;;;;;;22.79;74.28;100744.81;5191432;55;1142938;-80
2021/06/24 14:47:13;;;;;;;19.35;11.48;;;;;;;22.85;73.92;100743.73;5171033;55;1142782;-84
2021/06/24 14:52:19;;;;;;;17.92;11.57;;;;;;;22.85;73.49;100743.22;5204204;55;1142973;-81
2021/06/24 14:57:24;;;;;;;21.25;10.32;;;;;;;22.89;72.99;100736.94;5189012;55;1143195;-82
2021/06/24 15:02:30;;;;;;;17.12;9.73;;;;;;;22.89;72.95;100728.84;5164057;55;1142789;-82
2021/06/24 15:07:36;;;;;;;19.30;10.75;;;;;;;22.94;71.62;100716.42;5196237;55;1140682;-84
2021/06/24 15:12:41;;;;;;;18.37;10.28;;;;;;;22.98;72.20;100709.62;5171622;55;1142974;-81
2021/06/24 15:17:47;;;;;;;15.38;9.93;;;;;;;22.95;71.95;100714.05;5154486;55;1142730;-82
2021/06/24 15:22:53;;;;;;;20.70;9.80;;;;;;;22.96;71.32;100713.53;5146495;55;1140859;-82
2021/06/24 15:28:00;;;;;;;16.62;9.50;;;;;;;22.90;71.95;100711.63;5128165;56;1140859;-81
2021/06/24 15:33:09;;;;;;;22.15;10.60;;;;;;;22.77;72.01;100688.05;5122043;56;1140781;-82
2021/06/24 15:38:15;;;;;;;16.27;9.65;;;;;;;22.77;72.43;100700.19;5139182;56;1142856;-86
2021/06/24 15:43:21;;;;;;;9.30;7.17;;;;;;;22.62;72.89;100698.88;5139038;56;1140826;-80
2021/06/24 15:48:28;;;;;;;10.68;8.48;;;;;;;22.42;73.63;100706.80;5139596;56;1138816;-81
2021/06/24 15:53:34;;;;;;;58.68;32.33;;;;;;;22.13;74.73;100704.19;5139042;56;1140982;-84
2021/06/24 15:58:42;;;;;;;110.55;59.85;;;;;;;21.95;74.78;100701.87;5139084;55;1142832;-78
2021/06/24 16:03:47;;;;;;;1630.58;802.44;;;;;;;21.97;75.11;100699.83;5139009;56;1144922;-85
2021/06/24 16:08:53;;;;;;;239.70;113.25;;;;;;;21.97;75.27;100708.41;5138523;56;1149074;-84
2021/06/24 16:13:59;;;;;;;886.30;510.40;;;;;;;21.86;75.25;100714.26;5138710;56;1146943;-81
2021/06/24 16:19:05;;;;;;;482.73;265.48;;;;;;;21.78;75.37;100715.72;5138849;56;1147120;-79
2021/06/24 16:24:16;;;;;;;364.45;183.55;;;;;;;21.62;75.53;100720.27;5138996;56;1147108;-81
2021/06/24 16:29:18;;;;;;;28.57;16.62;;;;;;;21.45;76.03;100722.81;5138558;56;1147001;-81
2021/06/24 16:34:24;;;;;;;15.78;8.83;;;;;;;21.40;75.88;100718.48;5138790;56;1142834;-78
2021/06/24 16:39:33;;;;;;;11.68;8.03;;;;;;;21.23;75.73;100721.88;5139101;56;1140921;-83
2021/06/24 16:44:39;;;;;;;39.90;19.45;;;;;;;20.93;75.96;100716.89;5139114;56;1141160;-82
2021/06/24 16:49:45;;;;;;;31.42;17.10;;;;;;;20.75;76.89;100712.87;5057912;56;1142960;-81
2021/06/24 16:54:51;;;;;;;59.56;28.82;;;;;;;20.68;77.20;100722.14;5076285;56;1143100;-82
2021/06/24 16:59:57;;;;;;;14.85;8.43;;;;;;;20.62;78.32;100723.69;5081227;56;1142928;-88
2021/06/24 17:05:04;;;;;;;14.35;7.08;;;;;;;20.55;78.00;100716.03;5131499;55;1140679;-76
2021/06/24 17:10:13;;;;;;;14.47;8.95;;;;;;;20.57;78.29;100719.38;5151054;55;1140763;-82
2021/06/24 17:15:21;;;;;;;22.73;11.40;;;;;;;20.62;77.81;100688.75;5135941;55;1140673;-78
2021/06/24 17:20:27;;;;;;;10.58;8.10;;;;;;;20.73;77.76;100682.13;5129319;55;1142976;-81
2021/06/24 17:25:33;;;;;;;15.72;9.95;;;;;;;20.74;77.40;100676.25;5149842;55;1140635;-79
2021/06/24 17:30:44;;;;;;;11.73;7.92;;;;;;;20.58;77.45;100680.74;5140673;55;1140691;-78
2021/06/24 17:35:46;;;;;;;12.63;8.95;;;;;;;20.39;77.74;100683.90;5076667;56;1140757;-76
2021/06/24 17:40:52;;;;;;;18.57;12.58;;;;;;;20.22;77.83;100683.13;5077269;56;1140786;-79
2021/06/24 17:45:58;;;;;;;84.67;45.83;;;;;;;20.05;78.06;100701.69;5076738;56;1142897;-81
2021/06/24 17:51:05;;;;;;;34.53;18.40;;;;;;;19.96;78.44;100717.02;5076456;56;1143041;-81
2021/06/24 17:56:10;;;;;;;64.25;31.25;;;;;;;19.88;78.68;100734.48;5067383;56;1143075;-83
2021/06/24 18:01:16;;;;;;;39.33;20.48;;;;;;;19.79;78.80;100750.30;5076896;56;1142753;-80
2021/06/24 18:06:22;;;;;;;12.53;7.80;;;;;;;19.74;78.95;100735.21;5094955;55;1142776;-77
2021/06/24 18:11:28;;;;;;;20.05;11.08;;;;;;;19.70;79.10;100758.06;5123411;55;1140898;-74
2021/06/24 18:16:35;;;;;;;17.02;8.50;;;;;;;19.76;79.06;100754.67;5094256;56;1142926;-74
2021/06/24 18:21:41;;;;;;;10.48;5.72;;;;;;;19.62;78.95;100749.52;5109529;56;1140851;-73
2021/06/24 18:26:46;;;;;;;7.78;6.45;;;;;;;19.55;79.17;100745.02;5094992;55;1140629;-84
2021/06/24 18:31:52;;;;;;;12.03;10.93;;;;;;;19.50;79.14;100751.39;5081196;56;1138551;-84
2021/06/24 18:36:58;;;;;;;43.35;38.48;;;;;;;19.51;79.13;100753.07;5053833;56;1142736;-85
2021/06/24 18:42:04;;;;;;;12.18;8.88;;;;;;;19.43;78.86;100749.02;5054567;56;1142729;-77
2021/06/24 18:47:10;;;;;;;42.80;38.10;;;;;;;19.33;78.50;100750.55;5054356;56;1140780;-77
2021/06/24 18:52:16;;;;;;;10.08;9.03;;;;;;;19.14;78.36;100731.63;5054165;56;1142917;-79
2021/06/24 18:57:22;;;;;;;11.73;8.68;;;;;;;18.90;78.80;100733.83;5128014;56;1140750;-77
2021/06/24 19:02:28;;;;;;;120.42;85.45;;;;;;;18.94;78.81;100754.45;5139489;56;1140675;-84
2021/06/24 19:07:34;;;;;;;36.60;27.45;;;;;;;18.85;78.49;100779.55;5150744;55;1144912;-78
2021/06/24 19:12:40;;;;;;;52.88;34.80;;;;;;;18.67;78.35;100785.55;5117061;56;1142675;-78
2021/06/24 19:17:48;;;;;;;46.08;38.58;;;;;;;18.63;78.43;100805.16;5105884;56;1142821;-77
2021/06/24 19:22:55;;;;;;;8.45;5.97;;;;;;;18.60;78.46;100804.13;5082860;56;1142979;-80
2021/06/24 19:28:02;;;;;;;230.95;104.87;;;;;;;18.65;78.41;100817.86;4921566;58;1138746;-79
2021/06/24 19:33:08;;;;;;;52.03;29.37;;;;;;;18.75;78.40;100812.38;4921373;59;1147010;-82
2021/06/24 19:38:14;;;;;;;23.77;11.95;;;;;;;18.78;78.07;100804.84;4892151;58;1142916;-79
2021/06/24 19:43:21;;;;;;;7.42;6.72;;;;;;;18.94;78.48;100824.13;4918385;58;1142833;-79
2021/06/24 19:48:27;;;;;;;3.90;3.47;;;;;;;19.02;78.30;100817.42;4792958;59;1138597;-79
2021/06/24 19:53:34;;;;;;;7.03;6.20;;;;;;;18.96;77.55;100820.26;4948921;57;1138581;-78
2021/06/24 19:58:41;;;;;;;3.87;2.85;;;;;;;18.92;77.46;100847.58;4933579;57;1138759;-78
2021/06/24 20:03:47;;;;;;;1.85;1.60;;;;;;;18.76;77.18;100861.78;4962873;57;1138750;-82
2021/06/24 20:08:53;;;;;;;3.72;3.40;;;;;;;18.63;76.96;100877.48;4905766;58;1138613;-78
2021/06/24 20:13:59;;;;;;;2.60;1.85;;;;;;;18.60;76.89;100852.36;4992621;58;1138792;-80
2021/06/24 20:19:06;;;;;;;3.00;2.28;;;;;;;18.48;76.73;100837.56;4980943;57;1145550;-81
2021/06/24 20:24:13;;;;;;;4.97;4.35;;;;;;;18.41;76.65;100830.66;4962930;57;1138850;-84
2021/06/24 20:29:19;;;;;;;8.93;5.80;;;;;;;18.30;76.54;100834.14;5023518;56;1138890;-81
2021/06/24 20:34:25;;;;;;;3.37;3.08;;;;;;;18.20;76.71;100827.55;4968792;57;1138794;-82
2021/06/24 20:39:30;;;;;;;3.35;2.27;;;;;;;18.20;77.01;100812.82;4968573;57;1138729;-84
2021/06/24 20:44:36;;;;;;;4.25;2.10;;;;;;;18.20;76.92;100815.50;5034494;56;1138791;-81
2021/06/24 20:49:42;;;;;;;4.80;1.70;;;;;;;18.15;77.04;100827.21;5019527;56;1138740;-79
2021/06/24 20:54:48;;;;;;;2.58;1.70;;;;;;;18.22;77.24;100810.83;4974217;57;1138814;-82
2021/06/24 20:59:54;;;;;;;5.35;1.47;;;;;;;18.31;77.35;100821.93;5020848;56;1138552;-77
2021/06/24 21:05:00;;;;;;;2.60;1.65;;;;;;;18.36;77.01;100824.94;4997947;56;1138661;-76
2021/06/24 21:10:08;;;;;;;2.33;1.72;;;;;;;18.38;76.75;100822.10;5007504;56;1138646;-81
2021/06/24 21:15:15;;;;;;;2.17;1.87;;;;;;;18.31;76.57;100807.70;5090594;56;1138767;-79
2021/06/24 21:20:21;;;;;;;1.85;1.37;;;;;;;18.22;76.80;100804.13;5064009;56;1138836;-80
2021/06/24 21:25:28;;;;;;;2.10;1.90;;;;;;;18.21;76.87;100810.48;5050459;57;1138772;-80
2021/06/24 21:30:34;;;;;;;3.12;2.02;;;;;;;18.17;77.06;100824.72;5052697;57;1138757;-78
2021/06/24 21:35:40;;;;;;;3.95;1.90;;;;;;;18.20;77.32;100826.21;5052618;57;1138570;-80
2021/06/24 21:40:46;;;;;;;2.05;1.50;;;;;;;18.17;76.99;100834.59;5052398;57;1138591;-79
2021/06/24 21:45:52;;;;;;;2.08;1.77;;;;;;;18.16;77.16;100829.73;5052412;57;1138611;-81
2021/06/24 21:50:57;;;;;;;1.85;1.75;;;;;;;18.08;77.04;100823.48;5052632;57;1138832;-80
2021/06/24 21:56:03;;;;;;;4.50;2.65;;;;;;;18.00;77.07;100818.10;5003087;57;1138649;-82
2021/06/24 22:01:09;;;;;;;7.17;2.17;;;;;;;17.84;77.28;100827.72;4970630;58;1138887;-77
2021/06/24 22:06:15;;;;;;;2.17;1.75;;;;;;;17.69;77.31;100822.61;4900419;58;1138792;-76
2021/06/24 22:11:20;;;;;;;4.70;1.40;;;;;;;17.62;77.53;100821.52;4922275;58;1138777;-78
2021/06/24 22:16:26;;;;;;;1.00;1.00;;;;;;;17.63;77.36;100841.92;4922450;58;1138678;-80
2021/06/24 22:21:32;;;;;;;2.27;1.20;;;;;;;17.55;77.11;100842.72;4922285;58;1138616;-79
2021/06/24 22:26:37;;;;;;;1.90;1.80;;;;;;;17.37;77.15;100827.70;4922036;58;1138580;-76
2021/06/24 22:31:43;;;;;;;2.37;1.70;;;;;;;17.34;77.85;100818.14;4965110;58;1138777;-80
2021/06/24 22:36:49;;;;;;;1.70;1.50;;;;;;;17.41;77.65;100809.02;5048255;57;1138812;-80
2021/06/24 22:41:55;;;;;;;2.53;1.80;;;;;;;17.45;77.71;100805.85;5053421;57;1138865;-78
2021/06/24 22:47:01;;;;;;;4.07;2.63;;;;;;;17.44;77.60;100785.95;5053160;57;1139046;-82
2021/06/24 22:52:07;;;;;;;3.27;2.23;;;;;;;17.37;77.57;100784.91;5053198;57;1139059;-82
2021/06/24 22:57:13;;;;;;;2.38;2.18;;;;;;;17.31;77.61;100756.12;5051441;56;1138859;-78
2021/06/24 23:02:18;;;;;;;2.40;2.08;;;;;;;17.27;77.83;100757.42;5051813;56;1138636;-81
2021/06/24 23:07:24;;;;;;;4.35;2.42;;;;;;;17.31;77.97;100756.95;5072976;56;1138917;-79